createdAt,value
2019-02-22T00:01:09.148Z,21.82
2019-02-22T00:02:41.441Z,22.00
2019-02-22T00:04:13.668Z,21.30
2019-02-22T00:05:45.927Z,23.05
2019-02-22T00:07:18.179Z,22.45
2019-02-22T00:08:50.443Z,22.52
2019-02-22T00:10:22.701Z,22.40
2019-02-22T00:11:54.979Z,21.70
2019-02-22T00:13:27.215Z,22.50
2019-02-22T00:14:59.418Z,21.87
2019-02-22T00:16:32.445Z,22.58
2019-02-22T00:18:04.872Z,22.52
2019-02-22T00:19:37.096Z,22.20
2019-02-22T00:21:09.382Z,22.73
2019-02-22T00:22:41.673Z,21.40
2019-02-22T00:24:13.814Z,21.68
2019-02-22T00:25:46.077Z,20.88
2019-02-22T00:27:18.416Z,21.57
2019-02-22T00:28:50.686Z,21.55
2019-02-22T00:30:22.949Z,22.82
2019-02-22T00:31:55.170Z,21.48
2019-02-22T00:33:27.470Z,23.22
2019-02-22T00:34:59.806Z,22.48
2019-02-22T00:36:32.149Z,22.75
2019-02-22T00:38:04.505Z,22.32
2019-02-22T00:39:36.812Z,23.60
2019-02-22T00:41:09.006Z,23.75
2019-02-22T00:42:41.135Z,22.90
2019-02-22T00:44:13.400Z,22.15
2019-02-22T00:45:45.554Z,22.77
2019-02-22T00:47:17.835Z,24.18
2019-02-22T00:48:50.061Z,23.20
2019-02-22T00:50:22.353Z,25.00
2019-02-22T00:51:54.604Z,25.00
2019-02-22T00:53:26.871Z,24.23
2019-02-22T00:54:59.007Z,26.65
2019-02-22T00:56:31.249Z,24.90
2019-02-22T00:58:03.512Z,25.65
2019-02-22T00:59:35.622Z,24.72
2019-02-22T01:01:07.882Z,25.27
2019-02-22T01:02:40.131Z,24.70
2019-02-22T01:04:12.437Z,24.47
2019-02-22T01:05:44.666Z,24.67
2019-02-22T01:07:16.839Z,25.35
2019-02-22T01:08:48.989Z,23.90
2019-02-22T01:10:30.880Z,24.10
2019-02-22T01:11:55.249Z,25.30
2019-02-22T01:13:27.432Z,24.02
2019-02-22T01:14:59.670Z,24.43
2019-02-22T01:16:31.993Z,23.35
2019-02-22T01:18:04.245Z,22.55
2019-02-22T01:19:36.621Z,23.92
2019-02-22T01:21:08.929Z,24.10
2019-02-22T01:22:41.207Z,24.37
2019-02-22T01:24:13.363Z,26.42
2019-02-22T01:25:45.560Z,25.30
2019-02-22T01:27:17.698Z,24.63
2019-02-22T01:28:49.834Z,24.82
2019-02-22T01:30:22.092Z,27.95
2019-02-22T01:31:54.412Z,29.45
2019-02-22T01:33:26.682Z,31.45
2019-02-22T01:34:58.891Z,31.23
2019-02-22T01:36:31.150Z,28.75
2019-02-22T01:38:03.418Z,31.90
2019-02-22T01:39:35.567Z,31.02
2019-02-22T01:41:07.911Z,30.88
2019-02-22T01:42:40.152Z,31.02
2019-02-22T01:44:19.693Z,31.05
2019-02-22T01:45:51.857Z,31.68
2019-02-22T01:47:24.093Z,33.80
2019-02-22T01:48:56.234Z,31.57
2019-02-22T01:50:28.486Z,32.48
2019-02-22T01:52:00.811Z,30.57
2019-02-22T01:53:33.100Z,32.05
2019-02-22T01:55:05.610Z,32.85
2019-02-22T01:56:37.879Z,33.60
2019-02-22T01:58:10.231Z,33.10
2019-02-22T01:59:42.478Z,35.00
2019-02-22T02:01:14.646Z,35.10
2019-02-22T02:02:46.801Z,33.67
2019-02-22T02:04:19.064Z,36.98
2019-02-22T02:05:51.205Z,36.15
2019-02-22T02:07:23.502Z,36.98
2019-02-22T02:08:55.783Z,37.03
2019-02-22T02:10:27.985Z,34.67
2019-02-22T02:12:01.937Z,36.90
2019-02-22T02:13:34.400Z,38.05
2019-02-22T02:15:07.092Z,34.92
2019-02-22T02:16:39.201Z,35.60
2019-02-22T02:18:11.476Z,36.60
2019-02-22T02:19:43.798Z,36.33
2019-02-22T02:21:16.116Z,35.38
2019-02-22T02:22:48.410Z,39.05
2019-02-22T02:24:20.681Z,38.48
2019-02-22T02:25:52.968Z,36.85
2019-02-22T02:27:25.218Z,38.33
2019-02-22T02:28:57.519Z,37.80
2019-02-22T02:30:29.644Z,37.78
2019-02-22T02:32:01.855Z,37.05
2019-02-22T02:33:34.087Z,36.55
2019-02-22T02:35:06.326Z,37.13
2019-02-22T02:36:38.445Z,36.68
2019-02-22T02:38:10.705Z,36.68
2019-02-22T02:39:42.803Z,38.88
2019-02-22T02:41:15.068Z,39.92
2019-02-22T02:42:47.285Z,36.63
2019-02-22T02:44:19.586Z,36.77
2019-02-22T02:45:51.900Z,36.75
2019-02-22T02:47:24.102Z,37.35
2019-02-22T02:48:56.364Z,37.15
2019-02-22T02:50:28.513Z,37.53
2019-02-22T02:52:00.779Z,38.05
2019-02-22T02:53:33.011Z,38.60
2019-02-22T02:55:24.211Z,38.75
2019-02-22T02:56:56.507Z,38.92
2019-02-22T02:58:28.803Z,38.23
2019-02-22T03:00:01.089Z,38.23
2019-02-22T03:01:33.403Z,40.65
2019-02-22T03:03:05.719Z,38.15
2019-02-22T03:04:37.825Z,37.95
2019-02-22T03:06:20.569Z,40.10
2019-02-22T03:07:53.577Z,39.00
2019-02-22T03:09:25.878Z,39.75
2019-02-22T03:10:58.113Z,39.70
2019-02-22T03:12:30.518Z,39.42
2019-02-22T03:14:02.891Z,39.23
2019-02-22T03:15:35.156Z,37.70
2019-02-22T03:17:07.382Z,38.65
2019-02-22T03:18:39.568Z,40.30
2019-02-22T03:20:11.816Z,41.65
2019-02-22T03:21:43.995Z,41.25
2019-02-22T03:23:16.262Z,40.85
2019-02-22T03:24:48.390Z,38.73
2019-02-22T03:26:20.644Z,40.90
2019-02-22T03:27:52.935Z,40.38
2019-02-22T03:29:25.155Z,41.10
2019-02-22T03:30:57.404Z,41.13
2019-02-22T03:32:29.759Z,40.58
2019-02-22T03:34:02.134Z,39.15
2019-02-22T03:35:34.508Z,40.40
2019-02-22T03:37:06.821Z,39.95
2019-02-22T03:38:39.138Z,40.17
2019-02-22T03:40:11.279Z,38.38
2019-02-22T03:41:43.388Z,41.90
2019-02-22T03:43:15.493Z,39.83
2019-02-22T03:44:47.620Z,40.73
2019-02-22T03:46:19.948Z,39.40
2019-02-22T03:47:52.193Z,40.75
2019-02-22T03:49:24.470Z,40.38
2019-02-22T03:50:56.731Z,38.98
2019-02-22T03:52:54.197Z,41.20
2019-02-22T03:54:26.493Z,39.65
2019-02-22T03:55:58.800Z,38.90
2019-02-22T03:57:31.038Z,41.83
2019-02-22T03:59:03.221Z,40.92
2019-02-22T04:00:35.362Z,40.35
2019-02-22T04:02:07.769Z,39.92
2019-02-22T04:03:39.973Z,40.15
2019-02-22T04:05:12.168Z,39.27
2019-02-22T04:06:44.488Z,40.20
2019-02-22T04:08:16.772Z,40.17
2019-02-22T04:09:49.025Z,40.58
2019-02-22T04:11:21.291Z,39.78
2019-02-22T04:12:53.561Z,40.78
2019-02-22T04:14:25.874Z,40.70
2019-02-22T04:15:58.141Z,41.18
2019-02-22T04:17:30.461Z,40.50
2019-02-22T04:19:02.763Z,40.90
2019-02-22T04:20:35.259Z,40.25
2019-02-22T04:22:07.541Z,40.48
2019-02-22T04:23:39.741Z,41.15
2019-02-22T04:25:11.905Z,40.43
2019-02-22T04:26:44.181Z,41.73
2019-02-22T04:28:16.316Z,41.90
2019-02-22T04:29:48.595Z,40.30
2019-02-22T04:31:21.193Z,41.00
2019-02-22T04:32:53.493Z,40.98
2019-02-22T04:34:25.637Z,42.13
2019-02-22T04:35:57.874Z,40.15
2019-02-22T04:37:29.999Z,41.08
2019-02-22T04:39:03.839Z,39.55
2019-02-22T04:40:36.083Z,40.88
2019-02-22T04:42:08.370Z,40.00
2019-02-22T04:43:40.484Z,38.92
2019-02-22T04:45:12.723Z,40.00
2019-02-22T04:46:44.871Z,40.88
2019-02-22T04:48:17.162Z,40.23
2019-02-22T04:49:49.486Z,39.25
2019-02-22T04:51:21.706Z,39.42
2019-02-22T04:52:53.847Z,39.95
2019-02-22T04:54:26.088Z,39.48
2019-02-22T04:55:58.408Z,38.90
2019-02-22T04:57:30.594Z,38.88
2019-02-22T04:59:02.730Z,38.98
2019-02-22T05:00:35.047Z,38.65
2019-02-22T05:02:07.386Z,39.53
2019-02-22T05:03:39.824Z,39.65
2019-02-22T05:05:12.644Z,38.83
2019-02-22T05:06:44.876Z,39.83
2019-02-22T05:08:17.044Z,39.23
2019-02-22T05:09:49.317Z,38.50
2019-02-22T05:11:21.618Z,38.92
2019-02-22T05:12:53.810Z,39.45
2019-02-22T05:14:26.152Z,38.73
2019-02-22T05:15:58.371Z,38.63
2019-02-22T05:17:30.630Z,39.35
2019-02-22T05:19:02.910Z,38.60
2019-02-22T05:20:35.168Z,39.50
2019-02-22T05:22:07.417Z,39.55
2019-02-22T05:23:39.624Z,38.85
2019-02-22T05:25:11.886Z,38.98
2019-02-22T05:26:44.107Z,39.90
2019-02-22T05:28:16.353Z,40.20
2019-02-22T05:29:48.655Z,38.80
2019-02-22T05:31:20.952Z,38.55
2019-02-22T05:32:53.265Z,39.75
2019-02-22T05:34:25.579Z,38.88
2019-02-22T05:35:57.819Z,39.03
2019-02-22T05:37:30.011Z,38.05
2019-02-22T05:39:03.839Z,38.00
2019-02-22T05:40:36.094Z,38.75
2019-02-22T05:42:08.360Z,39.55
2019-02-22T05:43:40.592Z,38.28
2019-02-22T05:45:12.898Z,38.17
2019-02-22T05:46:45.204Z,38.80
2019-02-22T05:48:17.469Z,38.92
2019-02-22T05:49:49.706Z,38.48
2019-02-22T05:51:21.841Z,37.17
2019-02-22T05:52:54.036Z,38.10
2019-02-22T05:54:26.339Z,36.23
2019-02-22T05:55:58.625Z,37.30
2019-02-22T05:57:30.934Z,35.78
2019-02-22T05:59:03.007Z,37.13
2019-02-22T06:00:35.250Z,36.70
2019-02-22T06:02:07.538Z,37.80
2019-02-22T06:03:39.642Z,37.95
2019-02-22T06:05:11.917Z,36.03
2019-02-22T06:06:44.162Z,36.25
2019-02-22T06:08:16.913Z,36.28
2019-02-22T06:09:49.286Z,33.70
2019-02-22T06:11:21.651Z,35.25
2019-02-22T06:12:54.071Z,35.25
2019-02-22T06:14:26.466Z,36.42
2019-02-22T06:15:59.000Z,35.20
2019-02-22T06:17:31.632Z,35.38
2019-02-22T06:19:04.324Z,34.60
2019-02-22T06:20:36.840Z,36.63
2019-02-22T06:22:09.813Z,33.88
2019-02-22T06:23:42.065Z,34.08
2019-02-22T06:25:14.209Z,32.98
2019-02-22T06:26:46.487Z,31.82
2019-02-22T06:28:18.648Z,32.30
2019-02-22T06:29:50.876Z,33.25
2019-02-22T06:31:23.263Z,33.70
2019-02-22T06:32:55.671Z,33.20
2019-02-22T06:34:27.762Z,32.70
2019-02-22T06:36:00.029Z,34.00
2019-02-22T06:37:32.319Z,35.52
2019-02-22T06:39:06.654Z,35.48
2019-02-22T06:40:39.068Z,35.35
2019-02-22T06:42:11.299Z,34.00
2019-02-22T06:43:43.615Z,36.48
2019-02-22T06:45:15.718Z,34.03
2019-02-22T06:46:48.003Z,25.27
2019-02-22T06:48:20.329Z,27.37
2019-02-22T06:49:52.599Z,26.30
2019-02-22T06:51:24.896Z,27.55
2019-02-22T06:52:59.299Z,25.82
2019-02-22T06:54:31.621Z,26.57
2019-02-22T06:56:04.312Z,26.33
2019-02-22T06:57:36.653Z,26.30
2019-02-22T06:59:08.916Z,24.77
2019-02-22T07:00:41.028Z,24.90
2019-02-22T07:02:13.285Z,24.07
2019-02-22T07:03:45.580Z,23.38
2019-02-22T07:05:17.920Z,23.42
2019-02-22T07:06:50.194Z,24.63
2019-02-22T07:08:22.454Z,23.32
2019-02-22T07:09:54.753Z,23.87
2019-02-22T07:11:45.168Z,24.63
2019-02-22T07:13:26.106Z,23.45
2019-02-22T07:14:58.376Z,23.38
2019-02-22T07:16:30.635Z,23.18
2019-02-22T07:18:02.889Z,22.67
2019-02-22T07:19:35.135Z,22.77
2019-02-22T07:21:07.337Z,22.87
2019-02-22T07:22:39.700Z,28.42
2019-02-22T07:24:11.819Z,28.47
2019-02-22T07:25:44.043Z,27.50
2019-02-22T07:27:16.316Z,28.90
2019-02-22T07:28:48.624Z,28.77
2019-02-22T07:30:20.873Z,28.92
2019-02-22T07:31:52.966Z,28.40
2019-02-22T07:33:25.149Z,29.30
2019-02-22T07:34:57.505Z,28.75
2019-02-22T07:36:29.780Z,27.65
2019-02-22T07:38:02.088Z,28.45
2019-02-22T07:39:34.360Z,28.60
2019-02-22T07:41:06.620Z,27.87
2019-02-22T07:42:38.748Z,29.18
2019-02-22T07:44:11.099Z,28.65
2019-02-22T07:45:43.457Z,28.57
2019-02-22T07:47:15.846Z,26.80
2019-02-22T07:48:48.309Z,28.00
2019-02-22T07:50:20.635Z,27.60
2019-02-22T07:51:52.916Z,27.37
2019-02-22T07:53:25.312Z,26.17
2019-02-22T07:54:57.626Z,27.45
2019-02-22T07:56:29.881Z,27.35
2019-02-22T07:58:02.312Z,25.75
2019-02-22T07:59:34.551Z,24.27
2019-02-22T08:01:06.826Z,24.18
2019-02-22T08:02:38.970Z,25.35
2019-02-22T08:04:11.196Z,25.02
2019-02-22T08:05:43.461Z,24.23
2019-02-22T08:07:15.771Z,23.07
2019-02-22T08:08:48.547Z,23.20
2019-02-22T08:10:20.844Z,22.25
2019-02-22T08:11:53.113Z,21.15
2019-02-22T08:13:25.384Z,22.22
2019-02-22T08:14:57.670Z,23.07
2019-02-22T08:16:29.949Z,22.60
2019-02-22T08:18:02.252Z,22.98
2019-02-22T08:19:34.391Z,24.15
2019-02-22T08:21:07.056Z,22.10
2019-02-22T08:22:39.417Z,22.40
2019-02-22T08:24:11.888Z,21.23
2019-02-22T08:25:44.383Z,20.57
2019-02-22T08:27:16.890Z,20.10
2019-02-22T08:28:49.261Z,19.75
2019-02-22T08:30:21.603Z,18.95
2019-02-22T08:31:54.131Z,20.23
2019-02-22T08:33:26.477Z,18.67
2019-02-22T08:34:58.764Z,17.42
2019-02-22T08:36:31.040Z,18.75
2019-02-22T08:38:05.799Z,18.20
2019-02-22T08:39:38.161Z,16.75
2019-02-22T08:41:10.285Z,16.73
2019-02-22T08:42:42.969Z,18.07
2019-02-22T08:44:15.368Z,16.55
2019-02-22T08:45:47.542Z,17.67
2019-02-22T08:47:19.779Z,18.20
2019-02-22T08:48:52.135Z,17.45
2019-02-22T08:50:24.660Z,18.20
2019-02-22T08:51:57.152Z,16.87
2019-02-22T08:53:29.637Z,15.85
2019-02-22T08:55:01.962Z,16.45
2019-02-22T08:56:34.123Z,16.00
2019-02-22T08:58:06.418Z,15.70
2019-02-22T08:59:38.657Z,16.30
2019-02-22T09:01:11.135Z,15.98
2019-02-22T09:02:43.356Z,15.15
2019-02-22T09:04:15.612Z,15.08
2019-02-22T09:05:48.160Z,14.83
2019-02-22T09:07:20.712Z,14.07
2019-02-22T09:08:52.955Z,14.18
2019-02-22T09:10:25.251Z,14.00
2019-02-22T09:11:57.895Z,13.58
2019-02-22T09:13:42.778Z,11.78
2019-02-22T09:15:06.070Z,9.60
2019-02-22T09:16:38.397Z,9.50
2019-02-22T09:18:10.644Z,9.10
2019-02-22T09:19:42.907Z,8.90
2019-02-22T09:21:15.186Z,9.03
2019-02-22T09:22:47.494Z,8.98
2019-02-22T09:24:19.800Z,9.05
2019-02-22T09:25:52.037Z,8.95
2019-02-22T09:27:24.241Z,10.08
2019-02-22T09:28:56.529Z,8.90
2019-02-22T09:30:28.811Z,9.68
2019-02-22T09:32:00.968Z,9.20
2019-02-22T09:33:33.338Z,9.15
2019-02-22T09:35:07.158Z,9.33
2019-02-22T09:36:39.425Z,8.95
2019-02-22T09:38:11.731Z,8.65
2019-02-22T09:39:44.123Z,8.98
2019-02-22T09:41:16.486Z,7.92
2019-02-22T09:42:48.660Z,8.13
2019-02-22T09:44:20.822Z,7.90
2019-02-22T09:45:52.940Z,8.40
2019-02-22T09:47:25.220Z,7.97
2019-02-22T09:48:57.535Z,8.45
2019-02-22T09:50:29.842Z,8.40
2019-02-22T09:52:02.120Z,8.38
2019-02-22T09:53:34.404Z,7.97
2019-02-22T09:55:08.399Z,7.50
2019-02-22T09:56:40.688Z,8.20
2019-02-22T09:58:12.986Z,9.25
2019-02-22T09:59:45.162Z,9.03
2019-02-22T10:01:17.435Z,8.70
2019-02-22T10:02:49.706Z,8.38
2019-02-22T10:04:22.147Z,7.97
2019-02-22T10:05:54.485Z,8.33
2019-02-22T10:07:26.759Z,8.80
2019-02-22T10:08:59.074Z,8.23
2019-02-22T10:10:31.630Z,8.28
2019-02-22T10:12:03.962Z,7.65
2019-02-22T10:13:36.236Z,7.28
2019-02-22T10:15:08.555Z,7.70
2019-02-22T10:16:40.678Z,7.42
2019-02-22T10:18:12.814Z,7.72
2019-02-22T10:19:45.179Z,6.90
2019-02-22T10:21:17.290Z,7.70
2019-02-22T10:22:49.573Z,7.37
2019-02-22T10:24:21.811Z,7.25
2019-02-22T10:25:53.932Z,6.50
2019-02-22T10:27:26.037Z,7.05
2019-02-22T10:28:58.303Z,7.08
2019-02-22T10:30:30.432Z,6.37
2019-02-22T10:32:02.683Z,6.50
2019-02-22T10:33:36.964Z,7.12
2019-02-22T10:35:09.098Z,6.33
2019-02-22T10:36:45.096Z,6.50
2019-02-22T10:38:15.423Z,7.25
2019-02-22T10:39:47.688Z,7.17
2019-02-22T10:41:19.915Z,6.78
2019-02-22T10:42:52.026Z,6.50
2019-02-22T10:44:24.366Z,6.17
2019-02-22T10:45:56.631Z,6.47
2019-02-22T10:47:28.839Z,7.65
2019-02-22T10:49:01.125Z,7.60
2019-02-22T10:50:33.414Z,7.12
2019-02-22T10:52:05.634Z,5.62
2019-02-22T10:53:37.899Z,6.05
2019-02-22T10:55:10.650Z,8.35
2019-02-22T10:56:43.081Z,7.00
2019-02-22T10:58:15.314Z,6.40
2019-02-22T10:59:47.648Z,8.48
2019-02-22T11:01:19.963Z,11.30
2019-02-22T11:02:52.423Z,11.15
2019-02-22T11:04:24.752Z,11.20
2019-02-22T11:05:57.013Z,10.98
2019-02-22T11:07:29.281Z,12.60
2019-02-22T11:09:01.637Z,8.85
2019-02-22T11:10:35.022Z,11.80
2019-02-22T11:12:07.249Z,10.43
2019-02-22T11:13:39.386Z,6.35
2019-02-22T11:15:13.233Z,6.28
2019-02-22T11:16:45.734Z,6.58
2019-02-22T11:18:18.799Z,3.80
2019-02-22T11:19:51.577Z,2.80
2019-02-22T11:21:23.706Z,3.40
2019-02-22T11:22:56.941Z,7.65
2019-02-22T11:24:29.134Z,6.58
2019-02-22T11:26:01.703Z,14.53
2019-02-22T11:27:34.011Z,15.28
2019-02-22T11:29:06.238Z,9.85
2019-02-22T11:30:38.339Z,8.55
2019-02-22T11:32:10.625Z,5.37
2019-02-22T11:33:42.898Z,3.05
2019-02-22T11:35:15.209Z,3.77
2019-02-22T11:36:47.323Z,12.10
2019-02-22T11:38:19.753Z,7.67
2019-02-22T11:39:51.992Z,6.20
2019-02-22T11:41:24.680Z,9.98
2019-02-22T11:42:56.963Z,13.13
2019-02-22T11:44:39.592Z,10.80
2019-02-22T11:46:03.375Z,5.83
2019-02-22T11:47:35.484Z,3.87
2019-02-22T11:49:07.784Z,3.62
2019-02-22T11:50:39.961Z,16.60
2019-02-22T11:52:12.130Z,2.02
2019-02-22T11:53:44.373Z,3.40
2019-02-22T11:55:16.712Z,4.85
2019-02-22T11:56:48.913Z,14.28
2019-02-22T11:58:21.166Z,4.45
2019-02-22T11:59:53.459Z,5.60
2019-02-22T12:01:25.744Z,4.17
2019-02-22T12:02:57.860Z,2.90
2019-02-22T12:04:29.966Z,2.45
2019-02-22T12:06:02.184Z,3.12
2019-02-22T12:07:34.485Z,2.40
2019-02-22T12:09:06.866Z,2.27
2019-02-22T12:10:39.049Z,1.90
2019-02-22T12:12:11.341Z,2.40
2019-02-22T12:13:43.608Z,3.90
2019-02-22T12:15:15.865Z,3.22
2019-02-22T12:16:48.469Z,2.50
2019-02-22T12:18:20.704Z,2.10
2019-02-22T12:19:53.091Z,1.62
2019-02-22T12:21:25.441Z,2.45
2019-02-22T12:22:57.600Z,2.02
2019-02-22T12:24:31.092Z,1.90
2019-02-22T12:26:03.785Z,1.60
2019-02-22T12:27:35.881Z,1.60
2019-02-22T12:29:08.157Z,1.90
2019-02-22T12:30:40.398Z,2.10
2019-02-22T12:32:12.672Z,1.60
2019-02-22T12:33:44.939Z,1.80
2019-02-22T12:35:17.185Z,2.85
2019-02-22T12:36:49.420Z,2.20
2019-02-22T12:38:21.543Z,3.60
2019-02-22T12:39:53.691Z,2.22
2019-02-22T12:41:25.966Z,1.72
2019-02-22T12:42:58.849Z,3.05
2019-02-22T12:44:31.261Z,2.55
2019-02-22T12:46:03.460Z,3.40
2019-02-22T12:47:35.837Z,3.50
2019-02-22T12:49:08.321Z,2.87
2019-02-22T12:50:40.669Z,2.05
2019-02-22T12:52:12.933Z,2.17
2019-02-22T12:53:45.171Z,2.00
2019-02-22T12:55:17.492Z,2.08
2019-02-22T12:56:58.254Z,2.30
2019-02-22T12:58:23.950Z,2.42
2019-02-22T12:59:56.050Z,2.10
2019-02-22T13:01:28.313Z,2.77
2019-02-22T13:03:02.380Z,3.77
2019-02-22T13:04:34.600Z,2.75
2019-02-22T13:06:06.904Z,2.60
2019-02-22T13:07:39.120Z,2.40
2019-02-22T13:09:11.256Z,2.50
2019-02-22T13:10:43.554Z,3.00
2019-02-22T13:12:17.401Z,2.60
2019-02-22T13:13:49.797Z,2.90
2019-02-22T13:15:22.062Z,3.35
2019-02-22T13:16:54.332Z,2.75
2019-02-22T13:18:26.665Z,3.20
2019-02-22T13:19:58.897Z,3.08
2019-02-22T13:21:31.057Z,3.20
2019-02-22T13:23:03.338Z,3.05
2019-02-22T13:24:35.543Z,2.98
2019-02-22T13:26:07.843Z,3.50
2019-02-22T13:27:40.113Z,3.60
2019-02-22T13:29:12.275Z,3.70
2019-02-22T13:30:44.714Z,3.42
2019-02-22T13:32:16.896Z,3.60
2019-02-22T13:33:49.054Z,3.83
2019-02-22T13:35:21.169Z,4.10
2019-02-22T13:36:53.295Z,4.10
2019-02-22T13:38:25.576Z,4.20
2019-02-22T13:39:57.906Z,3.90
2019-02-22T13:41:30.159Z,3.70
2019-02-22T13:43:02.421Z,4.30
2019-02-22T13:44:34.671Z,4.08
2019-02-22T13:46:06.980Z,4.40
2019-02-22T13:47:39.257Z,4.35
2019-02-22T13:49:11.539Z,4.25
2019-02-22T13:50:43.810Z,4.35
2019-02-22T13:52:16.074Z,4.70
2019-02-22T13:53:48.404Z,4.85
2019-02-22T13:55:20.596Z,4.28
2019-02-22T13:56:52.744Z,4.85
2019-02-22T13:58:24.868Z,4.90
2019-02-22T13:59:57.994Z,4.95
2019-02-22T14:01:31.709Z,4.78
2019-02-22T14:03:05.086Z,4.53
2019-02-22T14:04:37.437Z,4.80
2019-02-22T14:06:09.598Z,4.70
2019-02-22T14:07:50.741Z,4.55
2019-02-22T14:09:23.061Z,4.70
2019-02-22T14:10:55.329Z,3.90
2019-02-22T14:12:27.593Z,4.47
2019-02-22T14:13:59.767Z,4.97
2019-02-22T14:15:37.963Z,4.12
2019-02-22T14:17:06.216Z,4.10
2019-02-22T14:18:38.342Z,4.12
2019-02-22T14:20:10.635Z,4.40
2019-02-22T14:21:42.847Z,4.28
2019-02-22T14:23:15.188Z,5.15
2019-02-22T14:24:47.327Z,4.55
2019-02-22T14:26:19.804Z,4.78
2019-02-22T14:27:52.169Z,4.30
2019-02-22T14:29:24.797Z,4.58
2019-02-22T14:30:57.138Z,4.55
2019-02-22T14:32:29.530Z,4.42
2019-02-22T14:34:01.795Z,4.55
2019-02-22T14:35:34.160Z,4.15
2019-02-22T14:37:06.388Z,4.25
2019-02-22T14:38:38.897Z,4.37
2019-02-22T14:40:11.313Z,4.80
2019-02-22T14:41:43.589Z,4.50
2019-02-22T14:43:16.770Z,4.70
2019-02-22T14:44:49.341Z,4.92
2019-02-22T14:46:25.946Z,4.60
2019-02-22T14:47:55.815Z,6.05
2019-02-22T14:49:27.974Z,5.67
2019-02-22T14:51:00.257Z,4.83
2019-02-22T14:52:32.375Z,4.92
2019-02-22T14:54:04.593Z,5.05
2019-02-22T14:55:36.877Z,4.72
2019-02-22T14:57:09.084Z,4.80
2019-02-22T14:58:43.323Z,4.95
2019-02-22T15:00:15.822Z,5.05
2019-02-22T15:01:47.946Z,5.25
2019-02-22T15:03:20.212Z,5.55
2019-02-22T15:04:52.532Z,5.47
2019-02-22T15:06:24.757Z,4.70
2019-02-22T15:07:56.967Z,5.30
2019-02-22T15:09:29.230Z,4.90
2019-02-22T15:11:01.668Z,5.37
2019-02-22T15:12:33.984Z,5.45
2019-02-22T15:14:06.427Z,5.80
2019-02-22T15:15:48.077Z,5.47
2019-02-22T15:17:27.357Z,5.37
2019-02-22T15:18:59.171Z,5.55
2019-02-22T15:20:31.394Z,5.30
2019-02-22T15:22:03.703Z,5.10
2019-02-22T15:23:38.601Z,4.97
2019-02-22T15:25:10.153Z,5.20
2019-02-22T15:26:42.483Z,5.80
2019-02-22T15:28:14.774Z,5.28
2019-02-22T15:29:47.089Z,5.42
2019-02-22T15:31:19.513Z,5.40
2019-02-22T15:32:51.741Z,5.65
2019-02-22T15:34:23.936Z,5.65
2019-02-22T15:35:56.124Z,6.33
2019-02-22T15:37:28.279Z,6.12
2019-02-22T15:39:00.411Z,6.10
2019-02-22T15:40:32.820Z,7.15
2019-02-22T15:42:05.122Z,8.70
2019-02-22T15:43:37.484Z,9.93
2019-02-22T15:45:11.425Z,9.30
2019-02-22T15:46:43.709Z,9.55
2019-02-22T15:48:15.954Z,8.08
2019-02-22T15:49:49.058Z,7.62
2019-02-22T15:51:21.506Z,6.87
2019-02-22T15:52:53.643Z,6.55
2019-02-22T15:54:25.964Z,6.00
2019-02-22T15:55:58.126Z,6.10
2019-02-22T15:57:30.367Z,5.97
2019-02-22T15:59:02.630Z,5.70
2019-02-22T16:00:34.907Z,5.33
2019-02-22T16:02:07.201Z,5.78
2019-02-22T16:04:08.147Z,5.90
2019-02-22T16:05:42.277Z,6.00
2019-02-22T16:07:14.386Z,8.53
2019-02-22T16:08:46.655Z,10.00
2019-02-22T16:10:18.948Z,8.30
2019-02-22T16:11:52.444Z,6.97
2019-02-22T16:13:25.013Z,6.40
2019-02-22T16:14:57.232Z,5.60
2019-02-22T16:16:29.565Z,5.78
2019-02-22T16:18:01.854Z,5.65
2019-02-22T16:19:34.132Z,5.33
2019-02-22T16:21:06.422Z,6.08
2019-02-22T16:22:38.699Z,4.97
2019-02-22T16:24:10.982Z,5.28
2019-02-22T16:25:43.248Z,6.10
2019-02-22T16:27:15.379Z,6.00
2019-02-22T16:28:47.498Z,5.75
2019-02-22T16:30:21.251Z,5.42
2019-02-22T16:31:53.475Z,5.65
2019-02-22T16:33:25.684Z,5.83
2019-02-22T16:34:57.926Z,7.00
2019-02-22T16:36:30.035Z,7.03
2019-02-22T16:38:02.242Z,6.90
2019-02-22T16:39:34.489Z,6.70
2019-02-22T16:41:06.712Z,6.17
2019-02-22T16:42:38.964Z,6.30
2019-02-22T16:44:11.138Z,6.22
2019-02-22T16:45:43.290Z,6.28
2019-02-22T16:47:15.558Z,6.42
2019-02-22T16:48:48.195Z,6.80
2019-02-22T16:50:20.638Z,6.60
2019-02-22T16:51:52.957Z,7.17
2019-02-22T16:53:25.300Z,6.53
2019-02-22T16:54:57.647Z,7.37
2019-02-22T16:56:29.779Z,6.87
2019-02-22T16:58:02.023Z,7.60
2019-02-22T16:59:34.252Z,6.95
2019-02-22T17:01:06.493Z,7.12
2019-02-22T17:02:38.678Z,7.15
2019-02-22T17:04:10.834Z,6.58
2019-02-22T17:05:43.083Z,7.17
2019-02-22T17:07:18.256Z,6.40
2019-02-22T17:08:50.417Z,7.33
2019-02-22T17:10:22.536Z,6.97
2019-02-22T17:12:05.804Z,7.03
2019-02-22T17:13:28.872Z,6.65
2019-02-22T17:15:01.139Z,7.00
2019-02-22T17:16:33.294Z,6.95
2019-02-22T17:18:05.533Z,6.78
2019-02-22T17:19:37.763Z,6.97
2019-02-22T17:21:10.128Z,7.30
2019-02-22T17:22:42.255Z,6.53
2019-02-22T17:24:14.529Z,6.95
2019-02-22T17:25:47.044Z,7.15
2019-02-22T17:27:19.461Z,7.08
2019-02-22T17:28:51.691Z,7.15
2019-02-22T17:30:23.996Z,7.15
2019-02-22T17:31:56.392Z,7.40
2019-02-22T17:33:28.698Z,7.75
2019-02-22T17:35:00.933Z,7.85
2019-02-22T17:36:33.206Z,7.90
2019-02-22T17:38:05.445Z,8.08
2019-02-22T17:39:37.636Z,7.47
2019-02-22T17:41:10.076Z,8.15
2019-02-22T17:42:42.381Z,7.83
2019-02-22T17:44:14.642Z,7.35
2019-02-22T17:45:46.951Z,7.78
2019-02-22T17:47:19.225Z,8.25
2019-02-22T17:48:53.982Z,7.60
2019-02-22T17:50:26.397Z,8.20
2019-02-22T17:52:01.418Z,8.25
2019-02-22T17:53:33.528Z,8.95
2019-02-22T17:55:06.304Z,9.23
2019-02-22T17:56:38.588Z,8.65
2019-02-22T17:58:10.888Z,9.05
2019-02-22T17:59:43.174Z,9.43
2019-02-22T18:01:15.438Z,9.33
2019-02-22T18:02:47.678Z,9.53
2019-02-22T18:04:19.969Z,9.00
2019-02-22T18:05:52.225Z,9.93
2019-02-22T18:07:24.330Z,9.03
2019-02-22T18:08:56.494Z,8.55
2019-02-22T18:10:28.587Z,8.33
2019-02-22T18:12:00.799Z,8.23
2019-02-22T18:13:33.076Z,8.83
2019-02-22T18:15:06.022Z,8.75
2019-02-22T18:16:38.292Z,8.90
2019-02-22T18:18:10.569Z,8.33
2019-02-22T18:19:42.767Z,8.65
2019-02-22T18:21:15.212Z,9.00
2019-02-22T18:22:47.364Z,8.73
2019-02-22T18:24:19.496Z,9.40
2019-02-22T18:25:51.783Z,9.28
2019-02-22T18:27:24.045Z,9.88
2019-02-22T18:28:56.246Z,9.43
2019-02-22T18:30:28.412Z,9.33
2019-02-22T18:32:00.671Z,9.23
2019-02-22T18:33:32.952Z,9.85
2019-02-22T18:35:05.500Z,9.45
2019-02-22T18:36:37.826Z,9.18
2019-02-22T18:38:10.078Z,9.15
2019-02-22T18:39:42.312Z,9.30
2019-02-22T18:41:14.596Z,8.73
2019-02-22T18:42:46.854Z,9.20
2019-02-22T18:44:19.150Z,9.43
2019-02-22T18:45:51.387Z,9.80
2019-02-22T18:47:23.971Z,9.10
2019-02-22T18:48:56.296Z,9.30
2019-02-22T18:50:28.598Z,10.23
2019-02-22T18:52:00.841Z,9.63
2019-02-22T18:53:32.986Z,9.65
2019-02-22T18:55:05.769Z,9.43
2019-02-22T18:56:37.866Z,12.28
2019-02-22T18:58:10.189Z,11.20
2019-02-22T18:59:42.292Z,10.80
2019-02-22T19:01:14.547Z,10.10
2019-02-22T19:02:46.812Z,10.68
2019-02-22T19:04:19.103Z,10.98
2019-02-22T19:05:51.233Z,10.38
2019-02-22T19:07:23.478Z,10.15
2019-02-22T19:08:55.575Z,9.90
2019-02-22T19:10:27.918Z,11.22
2019-02-22T19:12:00.226Z,9.98
2019-02-22T19:13:32.401Z,10.60
2019-02-22T19:15:05.061Z,10.48
2019-02-22T19:16:37.294Z,10.58
2019-02-22T19:18:09.398Z,9.98
2019-02-22T19:19:41.647Z,10.38
2019-02-22T19:21:13.887Z,9.38
2019-02-22T19:22:46.166Z,11.30
2019-02-22T19:24:18.440Z,10.70
2019-02-22T19:25:50.628Z,10.55
2019-02-22T19:27:22.888Z,11.35
2019-02-22T19:28:55.090Z,11.33
2019-02-22T19:30:27.381Z,10.28
2019-02-22T19:31:59.535Z,10.98
2019-02-22T19:33:31.697Z,9.65
2019-02-22T19:35:03.951Z,9.78
2019-02-22T19:36:36.314Z,9.43
2019-02-22T19:38:08.452Z,8.65
2019-02-22T19:39:40.738Z,9.23
2019-02-22T19:41:12.875Z,9.70
2019-02-22T19:42:45.046Z,9.70
2019-02-22T19:44:17.209Z,9.23
2019-02-22T19:45:49.356Z,8.88
2019-02-22T19:47:21.648Z,9.38
2019-02-22T19:48:53.812Z,8.80
2019-02-22T19:50:26.034Z,8.65
2019-02-22T19:51:58.194Z,8.83
2019-02-22T19:53:30.444Z,8.98
2019-02-22T19:55:02.675Z,8.73
2019-02-22T19:56:34.944Z,10.08
2019-02-22T19:58:07.215Z,9.43
2019-02-22T19:59:39.504Z,9.28
2019-02-22T20:01:11.847Z,8.00
2019-02-22T20:02:44.192Z,8.00
2019-02-22T20:04:16.494Z,8.33
2019-02-22T20:05:48.657Z,7.67
2019-02-22T20:07:20.946Z,8.03
2019-02-22T20:08:53.244Z,7.72
2019-02-22T20:10:25.528Z,7.87
2019-02-22T20:11:57.772Z,8.38